sensor_id;sensor_type;location;lat;lon;timestamp;P1;durP1;ratioP1;P2;durP2;ratioP2
9767;SDS011;4923;52.520;13.494;2024-01-15T00:00:19;6.05;;;4.25;;
9767;SDS011;4923;52.520;13.494;2024-01-15T00:03:06;5.75;;;4.68;;
9767;SDS011;4923;52.520;13.494;2024-01-15T00:05:53;7.03;;;4.85;;
9767;SDS011;4923;52.520;13.494;2024-01-15T00:08:40;4.93;;;4.32;;
9767;SDS011;4923;52.520;13.494;2024-01-15T00:11:28;4.63;;;4.20;;
9767;SDS011;4923;52.520;13.494;2024-01-15T00:14:15;4.55;;;4.25;;
9767;SDS011;4923;52.520;13.494;2024-01-15T00:17:05;4.47;;;4.07;;
9767;SDS011;4923;52.520;13.494;2024-01-15T00:19:52;5.03;;;4.57;;
9767;SDS011;4923;52.520;13.494;2024-01-15T00:22:39;5.53;;;5.03;;
9767;SDS011;4923;52.520;13.494;2024-01-15T00:25:25;5.03;;;4.20;;
9767;SDS011;4923;52.520;13.494;2024-01-15T00:28:14;5.88;;;5.13;;
9767;SDS011;4923;52.520;13.494;2024-01-15T00:31:00;5.20;;;4.45;;
9767;SDS011;4923;52.520;13.494;2024-01-15T00:33:47;6.45;;;4.90;;
9767;SDS011;4923;52.520;13.494;2024-01-15T00:36:34;4.82;;;4.45;;
9767;SDS011;4923;52.520;13.494;2024-01-15T00:39:21;5.93;;;4.85;;
9767;SDS011;4923;52.520;13.494;2024-01-15T00:42:08;4.15;;;3.55;;
9767;SDS011;4923;52.520;13.494;2024-01-15T00:44:56;7.40;;;5.05;;
9767;SDS011;4923;52.520;13.494;2024-01-15T00:47:43;4.88;;;4.47;;
9767;SDS011;4923;52.520;13.494;2024-01-15T00:50:29;5.85;;;4.00;;
9767;SDS011;4923;52.520;13.494;2024-01-15T00:53:16;4.85;;;4.35;;
9767;SDS011;4923;52.520;13.494;2024-01-15T00:56:03;7.90;;;5.10;;
9767;SDS011;4923;52.520;13.494;2024-01-15T00:58:50;4.88;;;4.47;;
9767;SDS011;4923;52.520;13.494;2024-01-15T01:01:38;5.18;;;4.60;;
9767;SDS011;4923;52.520;13.494;2024-01-15T01:04:28;7.22;;;5.38;;
9767;SDS011;4923;52.520;13.494;2024-01-15T01:07:15;4.53;;;4.15;;
9767;SDS011;4923;52.520;13.494;2024-01-15T01:10:01;4.38;;;4.07;;
9767;SDS011;4923;52.520;13.494;2024-01-15T01:12:49;4.95;;;4.45;;
9767;SDS011;4923;52.520;13.494;2024-01-15T01:15:36;4.30;;;3.90;;
9767;SDS011;4923;52.520;13.494;2024-01-15T01:18:25;6.95;;;4.55;;
9767;SDS011;4923;52.520;13.494;2024-01-15T01:21:12;5.88;;;5.00;;
9767;SDS011;4923;52.520;13.494;2024-01-15T01:23:58;5.82;;;4.38;;
9767;SDS011;4923;52.520;13.494;2024-01-15T01:26:45;6.45;;;4.95;;
9767;SDS011;4923;52.520;13.494;2024-01-15T01:29:32;5.78;;;5.18;;
9767;SDS011;4923;52.520;13.494;2024-01-15T01:32:19;4.60;;;4.20;;
9767;SDS011;4923;52.520;13.494;2024-01-15T01:35:08;6.03;;;4.60;;
9767;SDS011;4923;52.520;13.494;2024-01-15T01:37:55;5.72;;;4.70;;
9767;SDS011;4923;52.520;13.494;2024-01-15T01:40:41;5.05;;;4.53;;
9767;SDS011;4923;52.520;13.494;2024-01-15T01:43:28;5.47;;;4.90;;
9767;SDS011;4923;52.520;13.494;2024-01-15T01:46:15;4.75;;;4.22;;
9767;SDS011;4923;52.520;13.494;2024-01-15T01:49:02;5.03;;;4.57;;
9767;SDS011;4923;52.520;13.494;2024-01-15T01:51:52;5.85;;;4.35;;
9767;SDS011;4923;52.520;13.494;2024-01-15T01:54:39;4.80;;;4.40;;
9767;SDS011;4923;52.520;13.494;2024-01-15T01:57:27;5.65;;;4.38;;
9767;SDS011;4923;52.520;13.494;2024-01-15T02:00:15;5.80;;;4.50;;
9767;SDS011;4923;52.520;13.494;2024-01-15T02:03:03;5.32;;;4.20;;
9767;SDS011;4923;52.520;13.494;2024-01-15T02:05:50;5.30;;;3.80;;
9767;SDS011;4923;52.520;13.494;2024-01-15T02:08:39;7.47;;;5.03;;
9767;SDS011;4923;52.520;13.494;2024-01-15T02:11:30;6.10;;;5.07;;
9767;SDS011;4923;52.520;13.494;2024-01-15T02:14:17;7.68;;;5.03;;
9767;SDS011;4923;52.520;13.494;2024-01-15T02:17:03;6.82;;;5.28;;
9767;SDS011;4923;52.520;13.494;2024-01-15T02:19:50;5.90;;;4.75;;
9767;SDS011;4923;52.520;13.494;2024-01-15T02:22:37;7.20;;;4.82;;
9767;SDS011;4923;52.520;13.494;2024-01-15T02:25:25;6.30;;;4.72;;
9767;SDS011;4923;52.520;13.494;2024-01-15T02:28:13;11.68;;;5.82;;
9767;SDS011;4923;52.520;13.494;2024-01-15T02:31:01;8.27;;;4.47;;
9767;SDS011;4923;52.520;13.494;2024-01-15T02:33:48;5.38;;;4.47;;
9767;SDS011;4923;52.520;13.494;2024-01-15T02:36:35;4.13;;;3.65;;
9767;SDS011;4923;52.520;13.494;2024-01-15T02:39:22;5.75;;;4.68;;
9767;SDS011;4923;52.520;13.494;2024-01-15T02:42:10;3.80;;;3.47;;
9767;SDS011;4923;52.520;13.494;2024-01-15T02:44:57;4.95;;;3.70;;
9767;SDS011;4923;52.520;13.494;2024-01-15T02:47:44;5.82;;;3.20;;
9767;SDS011;4923;52.520;13.494;2024-01-15T02:50:31;4.25;;;3.80;;
9767;SDS011;4923;52.520;13.494;2024-01-15T02:53:17;4.85;;;3.58;;
9767;SDS011;4923;52.520;13.494;2024-01-15T02:56:04;3.40;;;3.10;;
9767;SDS011;4923;52.520;13.494;2024-01-15T02:58:54;4.50;;;3.45;;
9767;SDS011;4923;52.520;13.494;2024-01-15T03:01:41;2.70;;;2.47;;
9767;SDS011;4923;52.520;13.494;2024-01-15T03:04:28;4.20;;;3.58;;
9767;SDS011;4923;52.520;13.494;2024-01-15T03:07:15;3.75;;;3.08;;
9767;SDS011;4923;52.520;13.494;2024-01-15T03:10:02;6.97;;;3.30;;
9767;SDS011;4923;52.520;13.494;2024-01-15T03:12:50;3.97;;;3.47;;
9767;SDS011;4923;52.520;13.494;2024-01-15T03:15:39;6.00;;;3.80;;
9767;SDS011;4923;52.520;13.494;2024-01-15T03:18:26;3.70;;;3.40;;
9767;SDS011;4923;52.520;13.494;2024-01-15T03:21:12;4.45;;;2.83;;
9767;SDS011;4923;52.520;13.494;2024-01-15T03:23:59;3.65;;;2.42;;
9767;SDS011;4923;52.520;13.494;2024-01-15T03:26:46;10.30;;;2.55;;
9767;SDS011;4923;52.520;13.494;2024-01-15T03:29:33;3.35;;;2.95;;
9767;SDS011;4923;52.520;13.494;2024-01-15T03:32:21;4.90;;;3.08;;
9767;SDS011;4923;52.520;13.494;2024-01-15T03:35:08;2.80;;;2.60;;
9767;SDS011;4923;52.520;13.494;2024-01-15T03:37:55;5.90;;;3.25;;
9767;SDS011;4923;52.520;13.494;2024-01-15T03:40:42;5.90;;;2.75;;
9767;SDS011;4923;52.520;13.494;2024-01-15T03:43:28;5.75;;;3.00;;
9767;SDS011;4923;52.520;13.494;2024-01-15T03:46:15;6.60;;;2.70;;
9767;SDS011;4923;52.520;13.494;2024-01-15T03:49:03;2.80;;;2.60;;
9767;SDS011;4923;52.520;13.494;2024-01-15T03:51:50;6.22;;;3.00;;
9767;SDS011;4923;52.520;13.494;2024-01-15T03:54:37;3.28;;;2.90;;
9767;SDS011;4923;52.520;13.494;2024-01-15T03:57:24;4.20;;;2.90;;
9767;SDS011;4923;52.520;13.494;2024-01-15T04:00:11;4.38;;;2.53;;
9767;SDS011;4923;52.520;13.494;2024-01-15T04:02:59;8.82;;;2.90;;
9767;SDS011;4923;52.520;13.494;2024-01-15T04:05:47;3.83;;;2.55;;
9767;SDS011;4923;52.520;13.494;2024-01-15T04:08:34;6.90;;;2.10;;
9767;SDS011;4923;52.520;13.494;2024-01-15T04:11:21;5.90;;;2.28;;
9767;SDS011;4923;52.520;13.494;2024-01-15T04:14:08;9.48;;;2.90;;
9767;SDS011;4923;52.520;13.494;2024-01-15T04:16:55;1.77;;;1.67;;
9767;SDS011;4923;52.520;13.494;2024-01-15T04:19:43;5.38;;;2.95;;
9767;SDS011;4923;52.520;13.494;2024-01-15T04:22:32;4.93;;;2.47;;
9767;SDS011;4923;52.520;13.494;2024-01-15T04:25:19;2.22;;;2.00;;
9767;SDS011;4923;52.520;13.494;2024-01-15T04:28:06;2.28;;;2.10;;
9767;SDS011;4923;52.520;13.494;2024-01-15T04:30:53;4.10;;;2.22;;
9767;SDS011;4923;52.520;13.494;2024-01-15T04:33:39;4.43;;;1.75;;
9767;SDS011;4923;52.520;13.494;2024-01-15T04:36:26;2.95;;;1.70;;
9767;SDS011;4923;52.520;13.494;2024-01-15T04:39:14;7.40;;;2.33;;
9767;SDS011;4923;52.520;13.494;2024-01-15T04:42:01;4.45;;;2.33;;
9767;SDS011;4923;52.520;13.494;2024-01-15T04:44:49;5.68;;;1.80;;
9767;SDS011;4923;52.520;13.494;2024-01-15T04:47:36;2.35;;;1.60;;
9767;SDS011;4923;52.520;13.494;2024-01-15T04:50:23;3.92;;;2.00;;
9767;SDS011;4923;52.520;13.494;2024-01-15T04:53:10;5.80;;;1.30;;
9767;SDS011;4923;52.520;13.494;2024-01-15T04:55:58;3.53;;;1.80;;
9767;SDS011;4923;52.520;13.494;2024-01-15T04:58:45;2.50;;;1.30;;
9767;SDS011;4923;52.520;13.494;2024-01-15T05:01:32;2.08;;;1.50;;
9767;SDS011;4923;52.520;13.494;2024-01-15T05:04:19;2.75;;;1.50;;
9767;SDS011;4923;52.520;13.494;2024-01-15T05:07:06;3.22;;;1.05;;
9767;SDS011;4923;52.520;13.494;2024-01-15T05:09:53;0.93;;;0.93;;
9767;SDS011;4923;52.520;13.494;2024-01-15T05:12:41;2.78;;;1.15;;
9767;SDS011;4923;52.520;13.494;2024-01-15T05:15:28;3.28;;;1.48;;
9767;SDS011;4923;52.520;13.494;2024-01-15T05:18:16;4.68;;;1.77;;
9767;SDS011;4923;52.520;13.494;2024-01-15T05:21:03;4.30;;;1.67;;
9767;SDS011;4923;52.520;13.494;2024-01-15T05:23:50;1.10;;;1.00;;
9767;SDS011;4923;52.520;13.494;2024-01-15T05:26:37;1.25;;;1.10;;
9767;SDS011;4923;52.520;13.494;2024-01-15T05:29:25;5.35;;;1.30;;
9767;SDS011;4923;52.520;13.494;2024-01-15T05:32:13;3.13;;;1.60;;
9767;SDS011;4923;52.520;13.494;2024-01-15T05:35:00;1.08;;;0.90;;
9767;SDS011;4923;52.520;13.494;2024-01-15T05:37:47;1.85;;;1.05;;
9767;SDS011;4923;52.520;13.494;2024-01-15T05:40:34;1.95;;;0.95;;
9767;SDS011;4923;52.520;13.494;2024-01-15T05:43:20;1.10;;;1.05;;
9767;SDS011;4923;52.520;13.494;2024-01-15T05:46:08;5.40;;;1.30;;
9767;SDS011;4923;52.520;13.494;2024-01-15T05:48:55;0.90;;;0.68;;
9767;SDS011;4923;52.520;13.494;2024-01-15T05:51:42;2.97;;;1.08;;
9767;SDS011;4923;52.520;13.494;2024-01-15T05:54:29;8.35;;;0.95;;
9767;SDS011;4923;52.520;13.494;2024-01-15T05:57:16;1.60;;;1.30;;
9767;SDS011;4923;52.520;13.494;2024-01-15T06:00:03;4.03;;;1.13;;
9767;SDS011;4923;52.520;13.494;2024-01-15T06:02:53;3.45;;;1.45;;
9767;SDS011;4923;52.520;13.494;2024-01-15T06:05:40;0.60;;;0.60;;
9767;SDS011;4923;52.520;13.494;2024-01-15T06:08:27;3.22;;;1.13;;
9767;SDS011;4923;52.520;13.494;2024-01-15T06:11:13;0.65;;;0.60;;
9767;SDS011;4923;52.520;13.494;2024-01-15T06:14:00;6.97;;;1.35;;
9767;SDS011;4923;52.520;13.494;2024-01-15T06:16:47;2.50;;;1.05;;
9767;SDS011;4923;52.520;13.494;2024-01-15T06:19:36;2.58;;;0.68;;
9767;SDS011;4923;52.520;13.494;2024-01-15T06:22:23;1.10;;;0.70;;
9767;SDS011;4923;52.520;13.494;2024-01-15T06:25:10;6.28;;;1.15;;
9767;SDS011;4923;52.520;13.494;2024-01-15T06:27:57;5.05;;;0.75;;
9767;SDS011;4923;52.520;13.494;2024-01-15T06:30:43;5.55;;;0.80;;
9767;SDS011;4923;52.520;13.494;2024-01-15T06:33:30;0.90;;;0.82;;
9767;SDS011;4923;52.520;13.494;2024-01-15T06:36:18;6.78;;;1.10;;
9767;SDS011;4923;52.520;13.494;2024-01-15T06:39:05;5.47;;;0.90;;
9767;SDS011;4923;52.520;13.494;2024-01-15T06:41:52;3.47;;;0.70;;
9767;SDS011;4923;52.520;13.494;2024-01-15T06:44:39;5.85;;;0.77;;
9767;SDS011;4923;52.520;13.494;2024-01-15T06:47:26;2.35;;;1.08;;
9767;SDS011;4923;52.520;13.494;2024-01-15T06:50:13;3.50;;;0.73;;
9767;SDS011;4923;52.520;13.494;2024-01-15T06:53:01;3.05;;;0.90;;
9767;SDS011;4923;52.520;13.494;2024-01-15T06:55:48;2.85;;;0.95;;
9767;SDS011;4923;52.520;13.494;2024-01-15T06:58:36;1.70;;;0.75;;
9767;SDS011;4923;52.520;13.494;2024-01-15T07:01:23;5.70;;;0.70;;
9767;SDS011;4923;52.520;13.494;2024-01-15T07:04:10;4.45;;;1.08;;
9767;SDS011;4923;52.520;13.494;2024-01-15T07:06:57;4.53;;;0.80;;
9767;SDS011;4923;52.520;13.494;2024-01-15T07:09:45;2.47;;;0.60;;
9767;SDS011;4923;52.520;13.494;2024-01-15T07:12:32;2.08;;;0.50;;
9767;SDS011;4923;52.520;13.494;2024-01-15T07:15:19;4.55;;;0.75;;
9767;SDS011;4923;52.520;13.494;2024-01-15T07:18:06;10.77;;;0.90;;
9767;SDS011;4923;52.520;13.494;2024-01-15T07:20:53;3.53;;;1.40;;
9767;SDS011;4923;52.520;13.494;2024-01-15T07:23:39;4.65;;;0.65;;
9767;SDS011;4923;52.520;13.494;2024-01-15T07:26:29;2.10;;;0.50;;
9767;SDS011;4923;52.520;13.494;2024-01-15T07:29:16;2.40;;;0.60;;
9767;SDS011;4923;52.520;13.494;2024-01-15T07:32:03;2.78;;;0.55;;
9767;SDS011;4923;52.520;13.494;2024-01-15T07:34:53;3.85;;;0.98;;
9767;SDS011;4923;52.520;13.494;2024-01-15T07:37:39;2.42;;;0.63;;
9767;SDS011;4923;52.520;13.494;2024-01-15T07:40:26;3.38;;;0.63;;
9767;SDS011;4923;52.520;13.494;2024-01-15T07:43:14;3.00;;;0.73;;
9767;SDS011;4923;52.520;13.494;2024-01-15T07:46:01;2.75;;;1.00;;
9767;SDS011;4923;52.520;13.494;2024-01-15T07:48:48;2.33;;;0.60;;
9767;SDS011;4923;52.520;13.494;2024-01-15T07:51:41;5.15;;;0.70;;
9767;SDS011;4923;52.520;13.494;2024-01-15T07:54:29;3.95;;;0.60;;
9767;SDS011;4923;52.520;13.494;2024-01-15T07:57:15;2.00;;;0.70;;
9767;SDS011;4923;52.520;13.494;2024-01-15T08:00:04;5.07;;;0.60;;
9767;SDS011;4923;52.520;13.494;2024-01-15T08:02:52;1.15;;;0.50;;
9767;SDS011;4923;52.520;13.494;2024-01-15T08:05:39;3.65;;;0.50;;
9767;SDS011;4923;52.520;13.494;2024-01-15T08:08:26;3.95;;;0.75;;
9767;SDS011;4923;52.520;13.494;2024-01-15T08:11:13;3.63;;;0.73;;
9767;SDS011;4923;52.520;13.494;2024-01-15T08:14:00;11.82;;;0.77;;
9767;SDS011;4923;52.520;13.494;2024-01-15T08:16:48;2.72;;;0.70;;
9767;SDS011;4923;52.520;13.494;2024-01-15T08:19:36;1.10;;;0.47;;
9767;SDS011;4923;52.520;13.494;2024-01-15T08:22:23;1.65;;;0.60;;
9767;SDS011;4923;52.520;13.494;2024-01-15T08:25:09;2.20;;;0.68;;
9767;SDS011;4923;52.520;13.494;2024-01-15T08:27:57;4.90;;;0.70;;
9767;SDS011;4923;52.520;13.494;2024-01-15T08:30:44;5.55;;;0.80;;
9767;SDS011;4923;52.520;13.494;2024-01-15T08:33:32;0.90;;;0.40;;
9767;SDS011;4923;52.520;13.494;2024-01-15T08:36:19;3.65;;;0.60;;
9767;SDS011;4923;52.520;13.494;2024-01-15T08:39:06;1.85;;;0.68;;
9767;SDS011;4923;52.520;13.494;2024-01-15T08:41:54;4.97;;;0.57;;
9767;SDS011;4923;52.520;13.494;2024-01-15T08:44:42;3.63;;;0.90;;
9767;SDS011;4923;52.520;13.494;2024-01-15T08:47:29;5.07;;;0.90;;
9767;SDS011;4923;52.520;13.494;2024-01-15T08:50:17;2.53;;;0.75;;
9767;SDS011;4923;52.520;13.494;2024-01-15T08:53:04;7.20;;;1.20;;
9767;SDS011;4923;52.520;13.494;2024-01-15T08:55:50;2.28;;;0.52;;
9767;SDS011;4923;52.520;13.494;2024-01-15T08:58:37;1.67;;;0.50;;
9767;SDS011;4923;52.520;13.494;2024-01-15T09:01:24;6.07;;;1.10;;
9767;SDS011;4923;52.520;13.494;2024-01-15T09:04:11;17.73;;;1.15;;
9767;SDS011;4923;52.520;13.494;2024-01-15T09:07:00;1.70;;;0.50;;
9767;SDS011;4923;52.520;13.494;2024-01-15T09:09:47;5.68;;;0.65;;
9767;SDS011;4923;52.520;13.494;2024-01-15T09:12:34;7.53;;;0.88;;
9767;SDS011;4923;52.520;13.494;2024-01-15T09:15:20;1.10;;;0.60;;
9767;SDS011;4923;52.520;13.494;2024-01-15T09:18:08;4.40;;;0.60;;
9767;SDS011;4923;52.520;13.494;2024-01-15T09:20:55;2.58;;;0.60;;
9767;SDS011;4923;52.520;13.494;2024-01-15T09:23:44;2.55;;;0.73;;
9767;SDS011;4923;52.520;13.494;2024-01-15T09:26:30;7.07;;;0.57;;
9767;SDS011;4923;52.520;13.494;2024-01-15T09:29:17;9.57;;;0.90;;
9767;SDS011;4923;52.520;13.494;2024-01-15T09:32:04;9.15;;;1.50;;
9767;SDS011;4923;52.520;13.494;2024-01-15T09:34:52;3.40;;;0.88;;
9767;SDS011;4923;52.520;13.494;2024-01-15T09:37:39;3.58;;;0.77;;
9767;SDS011;4923;52.520;13.494;2024-01-15T09:40:27;7.13;;;1.02;;
9767;SDS011;4923;52.520;13.494;2024-01-15T09:43:18;0.95;;;0.50;;
9767;SDS011;4923;52.520;13.494;2024-01-15T09:46:05;2.45;;;0.70;;
9767;SDS011;4923;52.520;13.494;2024-01-15T09:48:53;2.85;;;1.05;;
9767;SDS011;4923;52.520;13.494;2024-01-15T09:51:40;1.83;;;0.50;;
9767;SDS011;4923;52.520;13.494;2024-01-15T09:54:28;5.97;;;1.00;;
9767;SDS011;4923;52.520;13.494;2024-01-15T09:57:16;1.65;;;0.70;;
9767;SDS011;4923;52.520;13.494;2024-01-15T10:00:03;1.15;;;0.70;;
9767;SDS011;4923;52.520;13.494;2024-01-15T10:02:52;5.25;;;0.93;;
9767;SDS011;4923;52.520;13.494;2024-01-15T10:05:38;2.58;;;0.65;;
9767;SDS011;4923;52.520;13.494;2024-01-15T10:08:25;5.15;;;0.60;;
9767;SDS011;4923;52.520;13.494;2024-01-15T10:11:12;2.00;;;0.50;;
9767;SDS011;4923;52.520;13.494;2024-01-15T10:14:00;1.05;;;0.68;;
9767;SDS011;4923;52.520;13.494;2024-01-15T10:16:47;0.70;;;0.70;;
9767;SDS011;4923;52.520;13.494;2024-01-15T10:19:34;3.05;;;1.08;;
9767;SDS011;4923;52.520;13.494;2024-01-15T10:22:21;5.30;;;0.70;;
9767;SDS011;4923;52.520;13.494;2024-01-15T10:25:11;1.85;;;0.73;;
9767;SDS011;4923;52.520;13.494;2024-01-15T10:27:59;3.78;;;0.60;;
9767;SDS011;4923;52.520;13.494;2024-01-15T10:30:48;1.15;;;1.05;;
9767;SDS011;4923;52.520;13.494;2024-01-15T10:33:38;0.55;;;0.55;;
9767;SDS011;4923;52.520;13.494;2024-01-15T10:36:25;2.15;;;0.45;;
9767;SDS011;4923;52.520;13.494;2024-01-15T10:39:13;0.57;;;0.40;;
9767;SDS011;4923;52.520;13.494;2024-01-15T10:42:00;0.40;;;0.40;;
9767;SDS011;4923;52.520;13.494;2024-01-15T10:44:47;2.28;;;0.70;;
9767;SDS011;4923;52.520;13.494;2024-01-15T10:47:35;0.93;;;0.50;;
9767;SDS011;4923;52.520;13.494;2024-01-15T10:50:22;0.52;;;0.50;;
9767;SDS011;4923;52.520;13.494;2024-01-15T10:53:09;1.00;;;0.50;;
9767;SDS011;4923;52.520;13.494;2024-01-15T10:55:58;1.75;;;0.50;;
9767;SDS011;4923;52.520;13.494;2024-01-15T10:58:46;3.42;;;0.47;;
9767;SDS011;4923;52.520;13.494;2024-01-15T11:01:33;0.50;;;0.50;;
9767;SDS011;4923;52.520;13.494;2024-01-15T11:04:22;0.30;;;0.30;;
9767;SDS011;4923;52.520;13.494;2024-01-15T11:07:12;1.42;;;0.88;;
9767;SDS011;4923;52.520;13.494;2024-01-15T11:10:02;6.10;;;0.60;;
9767;SDS011;4923;52.520;13.494;2024-01-15T11:12:50;0.60;;;0.40;;
9767;SDS011;4923;52.520;13.494;2024-01-15T11:15:56;0.40;;;0.40;;
9767;SDS011;4923;52.520;13.494;2024-01-15T11:18:48;0.95;;;0.40;;
9767;SDS011;4923;52.520;13.494;2024-01-15T11:21:50;2.05;;;0.40;;
9767;SDS011;4923;52.520;13.494;2024-01-15T11:24:37;1.85;;;0.28;;
9767;SDS011;4923;52.520;13.494;2024-01-15T11:27:39;0.40;;;0.40;;
9767;SDS011;4923;52.520;13.494;2024-01-15T11:30:27;3.30;;;0.43;;
9767;SDS011;4923;52.520;13.494;2024-01-15T11:36:19;2.72;;;0.32;;
9767;SDS011;4923;52.520;13.494;2024-01-15T11:42:21;0.40;;;0.40;;
9767;SDS011;4923;52.520;13.494;2024-01-15T11:45:09;0.45;;;0.40;;
9767;SDS011;4923;52.520;13.494;2024-01-15T11:48:02;1.98;;;0.30;;
9767;SDS011;4923;52.520;13.494;2024-01-15T11:51:00;0.85;;;0.40;;
9767;SDS011;4923;52.520;13.494;2024-01-15T11:53:48;0.40;;;0.40;;
9767;SDS011;4923;52.520;13.494;2024-01-15T11:56:42;0.50;;;0.50;;
9767;SDS011;4923;52.520;13.494;2024-01-15T11:59:31;1.63;;;0.52;;
9767;SDS011;4923;52.520;13.494;2024-01-15T12:02:18;3.05;;;0.45;;
9767;SDS011;4923;52.520;13.494;2024-01-15T12:05:05;0.40;;;0.40;;
9767;SDS011;4923;52.520;13.494;2024-01-15T12:07:52;0.73;;;0.60;;
9767;SDS011;4923;52.520;13.494;2024-01-15T12:10:40;0.77;;;0.77;;
9767;SDS011;4923;52.520;13.494;2024-01-15T12:13:27;0.57;;;0.52;;
9767;SDS011;4923;52.520;13.494;2024-01-15T12:16:15;0.40;;;0.40;;
9767;SDS011;4923;52.520;13.494;2024-01-15T12:19:02;1.05;;;0.50;;
9767;SDS011;4923;52.520;13.494;2024-01-15T12:21:50;0.60;;;0.50;;
9767;SDS011;4923;52.520;13.494;2024-01-15T12:24:37;0.40;;;0.40;;
9767;SDS011;4923;52.520;13.494;2024-01-15T12:27:24;0.40;;;0.40;;
9767;SDS011;4923;52.520;13.494;2024-01-15T12:30:11;0.50;;;0.50;;
9767;SDS011;4923;52.520;13.494;2024-01-15T12:33:02;2.05;;;0.65;;
9767;SDS011;4923;52.520;13.494;2024-01-15T12:35:52;0.50;;;0.50;;
9767;SDS011;4923;52.520;13.494;2024-01-15T12:38:39;0.60;;;0.60;;
9767;SDS011;4923;52.520;13.494;2024-01-15T12:41:26;1.85;;;0.80;;
9767;SDS011;4923;52.520;13.494;2024-01-15T12:44:13;2.70;;;0.77;;
9767;SDS011;4923;52.520;13.494;2024-01-15T12:47:00;0.45;;;0.45;;
9767;SDS011;4923;52.520;13.494;2024-01-15T12:49:50;0.47;;;0.32;;
9767;SDS011;4923;52.520;13.494;2024-01-15T12:52:39;0.30;;;0.30;;
9767;SDS011;4923;52.520;13.494;2024-01-15T12:55:27;0.50;;;0.50;;
9767;SDS011;4923;52.520;13.494;2024-01-15T12:58:14;3.60;;;0.40;;
9767;SDS011;4923;52.520;13.494;2024-01-15T13:01:01;4.00;;;0.60;;
9767;SDS011;4923;52.520;13.494;2024-01-15T13:03:48;0.40;;;0.40;;
9767;SDS011;4923;52.520;13.494;2024-01-15T13:06:36;0.38;;;0.35;;
9767;SDS011;4923;52.520;13.494;2024-01-15T13:09:23;0.30;;;0.30;;
9767;SDS011;4923;52.520;13.494;2024-01-15T13:12:10;2.50;;;0.50;;
9767;SDS011;4923;52.520;13.494;2024-01-15T13:14:57;0.45;;;0.45;;
9767;SDS011;4923;52.520;13.494;2024-01-15T13:17:44;0.40;;;0.40;;
9767;SDS011;4923;52.520;13.494;2024-01-15T13:20:31;2.17;;;0.40;;
9767;SDS011;4923;52.520;13.494;2024-01-15T13:23:19;0.40;;;0.40;;
9767;SDS011;4923;52.520;13.494;2024-01-15T13:26:06;0.52;;;0.40;;
9767;SDS011;4923;52.520;13.494;2024-01-15T13:28:53;0.50;;;0.50;;
9767;SDS011;4923;52.520;13.494;2024-01-15T13:31:40;0.50;;;0.50;;
9767;SDS011;4923;52.520;13.494;2024-01-15T13:34:27;2.58;;;0.50;;
9767;SDS011;4923;52.520;13.494;2024-01-15T13:37:14;2.90;;;0.50;;
9767;SDS011;4923;52.520;13.494;2024-01-15T13:40:02;2.05;;;0.73;;
9767;SDS011;4923;52.520;13.494;2024-01-15T13:42:52;0.30;;;0.30;;
9767;SDS011;4923;52.520;13.494;2024-01-15T13:45:40;0.82;;;0.50;;
9767;SDS011;4923;52.520;13.494;2024-01-15T13:48:27;0.40;;;0.40;;
9767;SDS011;4923;52.520;13.494;2024-01-15T13:51:14;0.73;;;0.57;;
9767;SDS011;4923;52.520;13.494;2024-01-15T13:54:01;0.50;;;0.50;;
9767;SDS011;4923;52.520;13.494;2024-01-15T13:56:51;0.52;;;0.52;;
9767;SDS011;4923;52.520;13.494;2024-01-15T13:59:37;1.00;;;0.43;;
9767;SDS011;4923;52.520;13.494;2024-01-15T14:02:24;0.50;;;0.50;;
9767;SDS011;4923;52.520;13.494;2024-01-15T14:05:11;1.83;;;0.43;;
9767;SDS011;4923;52.520;13.494;2024-01-15T14:07:59;3.83;;;0.57;;
9767;SDS011;4923;52.520;13.494;2024-01-15T14:10:46;0.68;;;0.50;;
9767;SDS011;4923;52.520;13.494;2024-01-15T14:13:34;1.85;;;0.82;;
9767;SDS011;4923;52.520;13.494;2024-01-15T14:16:21;3.13;;;0.40;;
9767;SDS011;4923;52.520;13.494;2024-01-15T14:19:08;0.63;;;0.40;;
9767;SDS011;4923;52.520;13.494;2024-01-15T14:21:55;2.38;;;0.70;;
9767;SDS011;4923;52.520;13.494;2024-01-15T14:24:42;6.82;;;0.85;;
9767;SDS011;4923;52.520;13.494;2024-01-15T14:27:29;1.10;;;0.55;;
9767;SDS011;4923;52.520;13.494;2024-01-15T14:30:17;0.43;;;0.43;;
9767;SDS011;4923;52.520;13.494;2024-01-15T14:33:04;3.70;;;0.88;;
9767;SDS011;4923;52.520;13.494;2024-01-15T14:35:51;2.75;;;0.50;;
9767;SDS011;4923;52.520;13.494;2024-01-15T14:38:38;1.42;;;0.47;;
9767;SDS011;4923;52.520;13.494;2024-01-15T14:41:25;0.40;;;0.40;;
9767;SDS011;4923;52.520;13.494;2024-01-15T14:44:12;0.65;;;0.60;;
9767;SDS011;4923;52.520;13.494;2024-01-15T14:47:01;4.35;;;0.50;;
9767;SDS011;4923;52.520;13.494;2024-01-15T14:49:48;0.45;;;0.40;;
9767;SDS011;4923;52.520;13.494;2024-01-15T14:52:35;1.58;;;0.60;;
9767;SDS011;4923;52.520;13.494;2024-01-15T14:55:22;3.13;;;0.45;;
9767;SDS011;4923;52.520;13.494;2024-01-15T14:58:09;1.45;;;0.40;;
9767;SDS011;4923;52.520;13.494;2024-01-15T15:00:56;0.68;;;0.40;;
9767;SDS011;4923;52.520;13.494;2024-01-15T15:03:44;0.40;;;0.40;;
9767;SDS011;4923;52.520;13.494;2024-01-15T15:06:31;2.05;;;0.50;;
9767;SDS011;4923;52.520;13.494;2024-01-15T15:09:18;1.33;;;0.50;;
9767;SDS011;4923;52.520;13.494;2024-01-15T15:12:05;0.40;;;0.40;;
9767;SDS011;4923;52.520;13.494;2024-01-15T15:14:52;2.28;;;0.55;;
9767;SDS011;4923;52.520;13.494;2024-01-15T15:17:39;3.58;;;0.88;;
9767;SDS011;4923;52.520;13.494;2024-01-15T15:20:27;0.80;;;0.50;;
9767;SDS011;4923;52.520;13.494;2024-01-15T15:23:14;1.30;;;0.60;;
9767;SDS011;4923;52.520;13.494;2024-01-15T15:26:02;0.40;;;0.40;;
9767;SDS011;4923;52.520;13.494;2024-01-15T15:28:49;1.55;;;0.63;;
9767;SDS011;4923;52.520;13.494;2024-01-15T15:31:36;2.42;;;0.60;;
9767;SDS011;4923;52.520;13.494;2024-01-15T15:34:23;0.32;;;0.30;;
9767;SDS011;4923;52.520;13.494;2024-01-15T15:37:12;0.60;;;0.57;;
9767;SDS011;4923;52.520;13.494;2024-01-15T15:40:02;0.90;;;0.57;;
9767;SDS011;4923;52.520;13.494;2024-01-15T15:42:53;1.05;;;0.60;;
9767;SDS011;4923;52.520;13.494;2024-01-15T15:45:40;0.60;;;0.52;;
9767;SDS011;4923;52.520;13.494;2024-01-15T15:48:27;1.95;;;0.70;;
9767;SDS011;4923;52.520;13.494;2024-01-15T15:51:14;1.75;;;0.85;;
9767;SDS011;4923;52.520;13.494;2024-01-15T15:54:02;1.95;;;0.60;;
9767;SDS011;4923;52.520;13.494;2024-01-15T15:56:50;0.90;;;0.50;;
9767;SDS011;4923;52.520;13.494;2024-01-15T15:59:37;2.95;;;0.88;;
9767;SDS011;4923;52.520;13.494;2024-01-15T16:02:24;0.50;;;0.50;;
9767;SDS011;4923;52.520;13.494;2024-01-15T16:05:11;0.43;;;0.43;;
9767;SDS011;4923;52.520;13.494;2024-01-15T16:07:58;8.77;;;0.70;;
9767;SDS011;4923;52.520;13.494;2024-01-15T16:10:46;0.63;;;0.40;;
9767;SDS011;4923;52.520;13.494;2024-01-15T16:13:36;0.50;;;0.40;;
9767;SDS011;4923;52.520;13.494;2024-01-15T16:16:23;1.63;;;0.57;;
9767;SDS011;4923;52.520;13.494;2024-01-15T16:19:10;1.38;;;0.93;;
9767;SDS011;4923;52.520;13.494;2024-01-15T16:21:57;0.60;;;0.60;;
9767;SDS011;4923;52.520;13.494;2024-01-15T16:24:43;3.80;;;1.30;;
9767;SDS011;4923;52.520;13.494;2024-01-15T16:27:31;3.25;;;0.70;;
9767;SDS011;4923;52.520;13.494;2024-01-15T16:30:19;1.88;;;0.60;;
9767;SDS011;4923;52.520;13.494;2024-01-15T16:33:06;0.60;;;0.60;;
9767;SDS011;4923;52.520;13.494;2024-01-15T16:35:54;0.80;;;0.80;;
9767;SDS011;4923;52.520;13.494;2024-01-15T16:38:42;0.85;;;0.60;;
9767;SDS011;4923;52.520;13.494;2024-01-15T16:41:29;1.15;;;0.80;;
9767;SDS011;4923;52.520;13.494;2024-01-15T16:44:19;1.95;;;0.90;;
9767;SDS011;4923;52.520;13.494;2024-01-15T16:47:06;1.45;;;0.50;;
9767;SDS011;4923;52.520;13.494;2024-01-15T16:49:52;0.68;;;0.68;;
9767;SDS011;4923;52.520;13.494;2024-01-15T16:52:39;3.45;;;0.73;;
9767;SDS011;4923;52.520;13.494;2024-01-15T16:55:26;2.53;;;0.70;;
9767;SDS011;4923;52.520;13.494;2024-01-15T16:58:13;2.70;;;0.63;;
9767;SDS011;4923;52.520;13.494;2024-01-15T17:01:02;1.35;;;0.73;;
9767;SDS011;4923;52.520;13.494;2024-01-15T17:03:49;0.93;;;0.93;;
9767;SDS011;4923;52.520;13.494;2024-01-15T17:06:37;1.20;;;0.70;;
9767;SDS011;4923;52.520;13.494;2024-01-15T17:09:24;0.93;;;0.70;;